Time;durP1;ratioP1;P1;durP2;ratioP2;P2;SDS_P1;SDS_P2;PMS_P1;PMS_P2;Temp;Humidity;BMP_temperature;BMP_pressure;BME280_temperature;BME280_humidity;BME280_pressure;Samples;Min_cycle;Max_cycle;Signal;HPM_P1;HPM_P2
2022/06/22 00:01:35;;;;;;;11.13;4.43;;;;;;;14.88;82.83;101372.41;5035166;28;20069;-79
2022/06/22 00:04:01;;;;;;;12.18;5.00;;;;;;;14.83;82.50;101361.81;5035040;28;20036;-79
2022/06/22 00:06:44;;;;;;;8.55;5.18;;;;;;;14.80;82.18;101364.81;5033663;28;20077;-78
2022/06/22 00:09:28;;;;;;;10.18;4.90;;;;;;;14.76;82.54;101368.81;5034956;28;20167;-79
2022/06/22 00:11:55;;;;;;;13.32;5.05;;;;;;;14.68;82.81;101370.81;5033692;28;20056;-79
2022/06/22 00:14:26;;;;;;;10.77;4.97;;;;;;;14.61;82.77;101376.78;5035089;28;20029;-79
2022/06/22 00:16:55;;;;;;;8.75;4.95;;;;;;;14.66;82.50;101394.41;5035342;28;20078;-80
2022/06/22 00:19:27;;;;;;;10.35;4.85;;;;;;;14.60;82.42;101393.41;5032821;28;20492;-79
2022/06/22 00:21:53;;;;;;;10.38;5.07;;;;;;;14.58;82.87;101398.00;5033498;28;20396;-79
2022/06/22 00:24:21;;;;;;;12.88;4.85;;;;;;;14.56;83.30;101388.81;5033445;28;20022;-80
2022/06/22 00:26:52;;;;;;;12.13;5.22;;;;;;;14.54;83.61;101389.00;5034648;28;20137;-79
2022/06/22 00:29:22;;;;;;;10.82;5.07;;;;;;;14.54;84.46;101383.81;5034557;28;20384;-79
2022/06/22 00:31:47;;;;;;;11.73;5.22;;;;;;;14.53;83.67;101384.00;5033297;28;20021;-79
2022/06/22 00:34:22;;;;;;;12.13;5.37;;;;;;;14.48;83.78;101388.97;5033137;28;20025;-80
2022/06/22 00:37:12;;;;;;;10.40;5.43;;;;;;;14.43;84.01;101385.16;5033240;28;20299;-79
2022/06/22 00:39:42;;;;;;;12.40;5.60;;;;;;;14.39;83.98;101393.56;5033008;28;20026;-80
2022/06/22 00:42:21;;;;;;;12.93;5.43;;;;;;;14.38;84.03;101397.13;5033042;28;20021;-79
2022/06/22 00:45:09;;;;;;;11.73;5.72;;;;;;;14.30;84.89;101398.13;5034274;28;20498;-79
2022/06/22 00:47:40;;;;;;;11.52;5.25;;;;;;;14.16;84.56;101396.50;5033031;28;20037;-79
2022/06/22 00:50:14;;;;;;;9.68;4.78;;;;;;;14.02;85.31;101392.25;5032885;28;20485;-79
2022/06/22 00:52:47;;;;;;;7.90;4.47;;;;;;;14.01;85.12;101396.63;5034145;28;20384;-79
2022/06/22 00:55:27;;;;;;;9.43;4.53;;;;;;;13.97;84.13;101391.03;5034112;28;20071;-79
2022/06/22 00:58:18;;;;;;;8.93;5.18;;;;;;;13.93;84.03;101387.22;5032725;28;20065;-79
2022/06/22 01:01:16;;;;;;;12.35;4.95;;;;;;;13.88;83.83;101387.00;5030023;28;20038;-79
2022/06/22 01:03:50;;;;;;;11.23;4.90;;;;;;;13.72;84.30;101376.91;5032895;28;20453;-80
2022/06/22 01:06:40;;;;;;;12.73;5.05;;;;;;;13.72;84.80;101367.34;5033805;28;20092;-79
2022/06/22 01:09:11;;;;;;;10.25;4.68;;;;;;;13.49;85.08;101372.84;5033938;28;20496;-80
2022/06/22 01:14:40;;;;;;;10.30;4.70;;;;;;;13.42;85.24;101360.78;5034117;28;20504;-80
2022/06/22 01:17:14;;;;;;;8.52;4.43;;;;;;;13.28;85.08;101376.28;5033769;28;20111;-79
2022/06/22 01:20:11;;;;;;;10.45;4.50;;;;;;;13.14;86.07;101371.97;5033686;28;20087;-79
2022/06/22 01:22:46;;;;;;;10.25;4.90;;;;;;;13.07;86.77;101373.72;5031292;28;20505;-79
2022/06/22 01:25:41;;;;;;;9.73;5.00;;;;;;;13.00;86.76;101367.66;5033682;28;20029;-79
2022/06/22 01:28:10;;;;;;;10.40;5.10;;;;;;;12.95;86.75;101376.03;5032294;28;20040;-80
2022/06/22 01:30:40;;;;;;;10.98;5.07;;;;;;;12.98;86.63;101375.66;5033345;28;20055;-79
2022/06/22 01:33:15;;;;;;;10.85;5.30;;;;;;;13.00;86.62;101378.03;5032302;28;20017;-80
2022/06/22 01:35:41;;;;;;;9.23;4.95;;;;;;;13.00;86.81;101381.44;5033571;28;20116;-79
2022/06/22 01:38:25;;;;;;;13.43;5.40;;;;;;;12.97;87.48;101381.81;5033364;28;20100;-79
2022/06/22 01:40:58;;;;;;;9.98;5.40;;;;;;;12.84;86.61;101372.16;5033228;28;20392;-79
2022/06/22 01:43:33;;;;;;;9.20;5.30;;;;;;;12.99;87.02;101368.66;5033239;28;20116;-79
2022/06/22 01:46:07;;;;;;;11.35;5.63;;;;;;;13.20;nan;101367.81;5033384;28;20033;-80
2022/06/22 01:48:43;;;;;;;10.45;6.10;;;;;;;13.15;86.04;101357.19;5033494;28;20073;-80
2022/06/22 01:51:46;;;;;;;15.73;6.53;;;;;;;13.09;87.05;101367.34;5031834;28;20022;-79
2022/06/22 01:54:25;;;;;;;9.73;5.93;;;;;;;12.94;87.03;101368.44;5033027;28;20097;-79
2022/06/22 01:57:06;;;;;;;10.88;5.95;;;;;;;12.72;87.75;101368.47;5031881;28;20087;-80
2022/06/22 01:59:41;;;;;;;11.50;6.07;;;;;;;12.72;88.02;101355.50;5033506;28;20029;-79
2022/06/22 02:02:23;;;;;;;12.15;6.68;;;;;;;12.79;88.75;101351.16;5033253;28;20025;-79
2022/06/22 02:05:02;;;;;;;12.70;6.97;;;;;;;13.04;88.18;101367.13;5031718;28;20473;-79
2022/06/22 02:07:46;;;;;;;10.52;7.22;;;;;;;13.28;88.12;101380.69;5033052;28;20045;-80
2022/06/22 02:10:23;;;;;;;10.48;6.35;;;;;;;13.26;86.78;101373.09;5031817;28;20025;-80
2022/06/22 02:13:08;;;;;;;14.15;7.22;;;;;;;13.04;88.22;101380.09;5031846;28;20240;-80
2022/06/22 02:15:39;;;;;;;12.05;7.30;;;;;;;12.96;89.06;101369.03;5031713;28;20481;-80
2022/06/22 02:18:19;;;;;;;19.02;8.05;;;;;;;12.84;89.50;101373.94;5031770;28;20029;-80
2022/06/22 02:20:45;;;;;;;12.32;7.03;;;;;;;12.83;89.08;101375.75;5032983;28;20366;-80
2022/06/22 02:23:28;;;;;;;11.13;6.50;;;;;;;12.62;88.67;101381.72;5031634;28;20021;-80
2022/06/22 02:26:16;;;;;;;13.10;7.22;;;;;;;12.75;89.70;101385.44;5032894;28;20029;-80
2022/06/22 02:28:44;;;;;;;12.13;6.78;;;;;;;13.02;88.56;101394.22;5031584;28;20055;-80
2022/06/22 02:31:09;;;;;;;14.52;7.18;;;;;;;12.84;88.73;101386.91;5032957;28;20532;-80
2022/06/22 02:33:39;;;;;;;14.23;7.00;;;;;;;12.64;89.67;101359.00;5031995;28;20049;-80
2022/06/22 02:36:07;;;;;;;13.52;7.10;;;;;;;12.79;89.79;101369.31;5032837;28;20431;-80
2022/06/22 02:38:33;;;;;;;15.98;6.97;;;;;;;12.75;89.62;101370.69;5031594;28;20068;-80
2022/06/22 02:46:33;;;;;;;13.57;6.78;;;;;;;12.44;89.58;101367.59;5036593;28;20120;-80
2022/06/22 02:49:05;;;;;;;14.55;6.53;;;;;;;12.59;90.37;101366.53;5035307;28;20045;-80
2022/06/22 02:51:36;;;;;;;12.65;6.65;;;;;;;12.45;88.99;101364.81;5035364;28;20028;-80
2022/06/22 02:54:05;;;;;;;10.80;6.07;;;;;;;12.32;89.17;101351.72;5036660;28;20037;-80
2022/06/22 02:56:36;;;;;;;11.82;6.18;;;;;;;12.24;90.70;101336.31;5035143;28;20021;-80
2022/06/22 02:59:03;;;;;;;10.10;6.30;;;;;;;12.26;89.83;101335.13;5035132;28;20055;-80
2022/06/22 03:01:31;;;;;;;11.50;6.15;;;;;;;12.33;89.61;101328.22;5036528;28;20021;-80
2022/06/22 03:04:04;;;;;;;12.15;6.20;;;;;;;12.31;89.34;101313.84;5036347;28;20401;-80
2022/06/22 03:06:34;;;;;;;13.20;6.18;;;;;;;12.36;89.31;101320.06;5036563;28;20401;-80
2022/06/22 03:09:02;;;;;;;10.55;6.22;;;;;;;12.28;88.63;101312.41;5036296;28;20029;-81
2022/06/22 03:11:28;;;;;;;12.48;6.28;;;;;;;12.17;88.98;101305.94;5036213;28;20025;-80
2022/06/22 03:14:01;;;;;;;11.02;6.32;;;;;;;12.16;89.79;101306.91;5034982;28;20080;-80
2022/06/22 03:16:33;;;;;;;9.88;6.50;;;;;;;12.13;89.62;101286.56;5036108;28;20083;-80
2022/06/22 03:19:04;;;;;;;10.05;6.53;;;;;;;12.17;90.09;101285.22;5036058;28;20427;-80
2022/06/22 03:21:30;;;;;;;12.23;6.55;;;;;;;12.28;90.08;101290.88;5036064;28;20057;-79
2022/06/22 03:24:17;;;;;;;9.35;6.35;;;;;;;12.47;89.44;101290.25;5034635;28;20048;-80
2022/06/22 03:26:49;;;;;;;11.38;6.47;;;;;;;12.47;88.96;101268.72;5035898;28;20068;-80
2022/06/22 03:29:36;;;;;;;12.68;7.28;;;;;;;12.74;89.27;101293.84;5034584;28;20437;-80
2022/06/22 03:32:07;;;;;;;11.13;6.60;;;;;;;12.56;89.52;101298.72;5035766;28;20100;-80
2022/06/22 03:34:41;;;;;;;13.43;6.88;;;;;;;12.34;89.89;101295.31;5035706;28;20017;-80
2022/06/22 03:37:20;;;;;;;10.80;6.90;;;;;;;12.08;90.24;101270.75;5034389;28;20052;-80
2022/06/22 03:39:51;;;;;;;13.25;7.13;;;;;;;12.24;91.20;101308.59;5034334;28;20036;-80
2022/06/22 03:42:22;;;;;;;12.32;6.75;;;;;;;12.28;90.92;101307.22;5034176;28;20029;-80
2022/06/22 03:45:01;;;;;;;14.43;6.90;;;;;;;12.49;90.57;101305.66;5035582;28;20079;-80
2022/06/22 03:47:34;;;;;;;15.10;7.30;;;;;;;12.53;90.95;101301.69;5034223;28;20392;-80
2022/06/22 03:50:09;;;;;;;13.48;7.25;;;;;;;12.53;89.54;101297.28;5035376;28;20025;-80
2022/06/22 03:52:49;;;;;;;11.90;6.82;;;;;;;12.62;89.98;101311.72;5033561;28;20385;-80
2022/06/22 03:55:27;;;;;;;13.35;7.90;;;;;;;12.82;89.90;101314.47;5033535;28;20021;-80
2022/06/22 03:57:55;;;;;;;12.93;7.07;;;;;;;12.96;89.54;101314.56;5033931;28;20124;-80
2022/06/22 04:00:22;;;;;;;14.27;7.57;;;;;;;13.03;89.03;101318.81;5034046;28;20047;-80
2022/06/22 04:02:48;;;;;;;11.18;7.00;;;;;;;13.03;88.67;101321.41;5033824;28;20029;-80
2022/06/22 04:05:21;;;;;;;13.65;7.38;;;;;;;13.05;89.90;101326.41;5035172;28;20049;-80
2022/06/22 04:07:47;;;;;;;11.45;7.80;;;;;;;13.19;89.41;101330.69;5035240;28;20041;-80
2022/06/22 04:10:49;;;;;;;13.30;8.20;;;;;;;13.37;89.17;101339.78;5035022;28;20510;-80
2022/06/22 04:13:23;;;;;;;17.17;8.00;;;;;;;13.45;88.54;101337.84;5034991;28;20029;-80
2022/06/22 04:15:53;;;;;;;15.63;8.30;;;;;;;13.37;88.28;101339.78;5033662;28;20029;-80
2022/06/22 04:18:28;;;;;;;12.82;7.78;;;;;;;13.33;88.65;101334.19;5034846;28;20033;-80
2022/06/22 04:21:10;;;;;;;12.40;8.02;;;;;;;13.28;89.56;101334.75;5033533;28;20025;-80
2022/06/22 04:23:44;;;;;;;12.35;8.10;;;;;;;13.34;89.75;101335.00;5033688;28;20068;-80
2022/06/22 04:26:21;;;;;;;13.88;7.47;;;;;;;13.36;89.67;101341.59;5033340;28;20029;-80
2022/06/22 04:28:49;;;;;;;14.35;7.85;;;;;;;13.40;88.82;101342.81;5034735;28;20029;-80
2022/06/22 04:31:20;;;;;;;16.02;8.27;;;;;;;13.47;89.18;101335.88;5033416;28;20088;-80
2022/06/22 04:33:58;;;;;;;13.15;7.93;;;;;;;13.51;88.71;101347.47;5034611;28;20028;-80
2022/06/22 04:36:48;;;;;;;15.27;7.70;;;;;;;13.57;87.92;101348.47;5033227;28;20056;-79
2022/06/22 04:39:27;;;;;;;18.83;8.02;;;;;;;13.63;87.98;101354.72;5033156;28;20061;-80
2022/06/22 04:41:53;;;;;;;15.15;7.88;;;;;;;13.74;88.34;101354.16;5034389;28;20113;-80
2022/06/22 04:44:24;;;;;;;15.07;8.45;;;;;;;13.88;87.09;101349.81;5034365;28;20024;-80
2022/06/22 04:46:52;;;;;;;14.95;7.40;;;;;;;13.75;87.09;101346.19;5034214;28;20113;-80
2022/06/22 04:49:35;;;;;;;15.25;7.40;;;;;;;13.72;87.75;101341.38;5034320;28;20108;-80
2022/06/22 04:52:07;;;;;;;14.03;7.97;;;;;;;13.84;86.65;101340.78;5034295;28;20056;-80
2022/06/22 04:54:35;;;;;;;11.48;7.32;;;;;;;13.87;86.79;101341.22;5032865;28;20033;-80
2022/06/22 04:57:06;;;;;;;15.27;7.97;;;;;;;13.94;86.38;101347.25;5032891;28;20032;-80
2022/06/22 04:59:32;;;;;;;10.75;7.20;;;;;;;14.01;85.72;101347.25;5032546;28;20040;-81
2022/06/22 05:02:01;;;;;;;10.45;6.70;;;;;;;14.12;85.56;101353.69;5016375;28;20036;-80
2022/06/22 05:04:31;;;;;;;14.82;7.25;;;;;;;14.13;85.55;101347.50;5032066;28;20485;-80
2022/06/22 05:07:19;;;;;;;13.75;6.55;;;;;;;14.30;83.65;101346.16;5034065;28;20029;-80
2022/06/22 05:09:53;;;;;;;12.80;6.05;;;;;;;14.38;82.41;101347.75;5032667;28;20075;-80
2022/06/22 05:12:27;;;;;;;11.20;5.20;;;;;;;14.79;78.97;101357.22;5032546;28;20037;-80
2022/06/22 05:14:55;;;;;;;10.63;4.70;;;;;;;16.99;71.32;101342.16;5032598;28;20021;-80
2022/06/22 05:17:30;;;;;;;7.60;4.32;;;;;;;17.25;66.69;101348.16;5033702;28;20064;-80
2022/06/22 05:20:14;;;;;;;8.73;4.13;;;;;;;15.92;72.31;101354.34;5033410;28;20041;-79
2022/06/22 05:22:39;;;;;;;10.77;3.85;;;;;;;15.61;71.08;101360.25;5034856;28;20018;-80
2022/06/22 05:25:09;;;;;;;8.15;3.78;;;;;;;15.50;73.09;101364.28;5032516;28;20079;-79
2022/06/22 05:27:58;;;;;;;6.88;3.70;;;;;;;16.40;70.36;101372.94;5033486;28;20013;-80
2022/06/22 05:30:24;;;;;;;10.18;3.60;;;;;;;19.56;58.31;101378.94;5032184;28;20017;-80
2022/06/22 05:32:55;;;;;;;4.78;2.72;;;;;;;23.36;46.63;101380.72;5033534;28;20022;-80
2022/06/22 05:35:25;;;;;;;6.78;2.50;;;;;;;27.19;37.71;101376.69;5033597;28;20495;-80
2022/06/22 05:37:54;;;;;;;4.70;2.50;;;;;;;29.03;32.46;101372.97;5032150;28;20033;-80
2022/06/22 05:40:23;;;;;;;4.97;2.58;;;;;;;29.87;30.74;101356.53;5033440;28;20017;-81
2022/06/22 05:42:49;;;;;;;5.82;2.50;;;;;;;29.16;31.38;101371.41;5032498;28;20052;-79
2022/06/22 05:45:17;;;;;;;5.32;2.50;;;;;;;29.33;31.07;101378.78;5030598;28;20076;-79
2022/06/22 05:47:44;;;;;;;8.05;2.55;;;;;;;29.63;31.65;101380.00;5031573;28;20043;-79
2022/06/22 05:50:31;;;;;;;5.57;1.98;;;;;;;30.59;29.33;101381.41;5032033;28;20389;-78
2022/06/22 05:53:03;;;;;;;3.95;2.05;;;;;;;30.25;29.58;101379.34;5030397;28;20021;-78
2022/06/22 05:55:39;;;;;;;5.40;2.35;;;;;;;30.39;30.47;101381.94;5032081;28;20037;-79
2022/06/22 05:58:18;;;;;;;6.68;2.60;;;;;;;31.08;29.74;101379.53;5032853;28;20025;-79
2022/06/22 06:00:49;;;;;;;4.63;2.42;;;;;;;31.35;29.79;101383.03;5031659;28;20395;-81
2022/06/22 06:03:48;;;;;;;5.22;2.35;;;;;;;31.16;29.67;101388.63;5031632;28;20030;-81
2022/06/22 06:06:15;;;;;;;7.63;2.75;;;;;;;31.24;30.16;101387.88;5031691;28;20079;-81
2022/06/22 06:08:48;;;;;;;7.85;2.72;;;;;;;30.47;31.57;101392.66;5032684;28;20026;-80
2022/06/22 06:11:18;;;;;;;7.90;2.80;;;;;;;31.05;31.20;101390.06;5032829;28;20515;-81
2022/06/22 06:13:51;;;;;;;8.63;3.13;;;;;;;31.28;30.40;101388.06;5031768;28;20120;-81
2022/06/22 06:16:26;;;;;;;10.73;2.70;;;;;;;30.94;32.08;101390.31;5033040;28;20033;-80
2022/06/22 06:18:55;;;;;;;8.65;2.80;;;;;;;31.71;30.80;101398.78;5037324;28;20025;-80
2022/06/22 06:21:25;;;;;;;9.73;2.80;;;;;;;31.36;31.02;101396.09;5036076;28;20052;-80
2022/06/22 06:24:13;;;;;;;15.55;3.22;;;;;;;31.17;30.86;101387.56;5035568;28;20025;-80
2022/06/22 06:29:56;;;;;;;13.52;3.20;;;;;;;31.29;31.83;101386.94;5036925;28;20040;-80
2022/06/22 06:32:31;;;;;;;7.28;2.63;;;;;;;29.83;33.46;101379.50;5036922;28;20435;-79
2022/06/22 06:35:03;;;;;;;8.48;2.70;;;;;;;29.27;34.47;101382.63;5036749;28;20396;-79
2022/06/22 06:37:51;;;;;;;9.88;3.20;;;;;;;26.66;38.88;101384.66;5035364;28;20035;-79
2022/06/22 06:40:33;;;;;;;10.02;3.00;;;;;;;24.46;43.98;101380.44;5036638;28;20048;-79
2022/06/22 06:43:18;;;;;;;5.25;2.80;;;;;;;23.40;46.09;101397.63;5035223;28;20025;-79
2022/06/22 06:45:43;;;;;;;8.93;2.67;;;;;;;22.81;46.92;101398.59;5036601;28;20021;-80
2022/06/22 06:48:19;;;;;;;9.18;2.63;;;;;;;23.63;45.66;101394.53;5035372;28;20032;-79
2022/06/22 06:50:48;;;;;;;8.35;2.63;;;;;;;23.52;44.69;101394.75;5036320;28;20021;-78
2022/06/22 06:53:41;;;;;;;8.10;2.78;;;;;;;22.37;46.67;101390.88;5036546;28;20036;-79
2022/06/22 06:56:39;;;;;;;7.55;2.42;;;;;;;23.59;43.74;101387.38;5037494;28;20491;-79
2022/06/22 06:59:12;;;;;;;7.35;2.35;;;;;;;23.53;44.09;101386.56;5033120;28;20041;-79
2022/06/22 07:01:39;;;;;;;5.72;2.42;;;;;;;23.56;43.21;101387.91;5037329;28;20159;-79
2022/06/22 07:04:15;;;;;;;6.03;2.50;;;;;;;22.85;45.50;101388.34;5037185;28;20491;-79
2022/06/22 07:06:40;;;;;;;5.57;2.47;;;;;;;23.54;45.42;101385.53;5035469;28;20037;-78
2022/06/22 07:09:21;;;;;;;8.25;2.70;;;;;;;23.43;45.39;101368.88;5035751;28;20029;-78
2022/06/22 07:11:49;;;;;;;7.45;2.75;;;;;;;23.31;45.33;101370.94;5036830;28;20492;-78
2022/06/22 07:14:34;;;;;;;9.48;2.90;;;;;;;23.90;43.61;101361.91;5035474;28;20025;-78
2022/06/22 07:17:09;;;;;;;7.05;2.83;;;;;;;22.67;45.58;101366.63;5034480;28;20022;-78
2022/06/22 07:19:42;;;;;;;6.15;2.60;;;;;;;21.99;47.46;101355.00;5035987;28;20037;-79
2022/06/22 07:22:18;;;;;;;5.45;2.50;;;;;;;23.52;44.68;101344.66;5037782;28;20515;-80
2022/06/22 07:24:55;;;;;;;7.15;2.90;;;;;;;24.10;43.92;101353.22;5035631;28;20037;-78
2022/06/22 07:27:34;;;;;;;6.72;2.55;;;;;;;24.59;42.00;101352.69;5033734;28;20080;-79
2022/06/22 07:30:09;;;;;;;4.78;2.38;;;;;;;24.40;40.97;101354.25;5036822;28;20021;-79
2022/06/22 07:32:53;;;;;;;8.10;2.22;;;;;;;24.87;39.45;101361.88;5036478;28;20381;-79
2022/06/22 07:35:32;;;;;;;7.28;2.40;;;;;;;24.36;39.84;101359.28;5035262;28;20048;-79
2022/06/22 07:38:23;;;;;;;7.22;2.10;;;;;;;24.70;41.61;101361.38;5034720;28;20033;-80
2022/06/22 07:43:33;;;;;;;6.95;1.80;;;;;;;25.47;35.53;101351.34;5036098;28;20393;-80
2022/06/22 07:45:59;;;;;;;5.20;2.00;;;;;;;24.88;36.39;101363.44;5036007;28;20037;-78
2022/06/22 07:48:27;;;;;;;6.20;1.80;;;;;;;25.24;35.56;101363.38;5035800;28;20040;-79
2022/06/22 07:50:55;;;;;;;3.33;1.63;;;;;;;25.65;35.16;101363.16;5035580;28;20021;-79
2022/06/22 07:53:27;;;;;;;5.30;2.20;;;;;;;25.03;36.25;101369.75;5035208;28;20112;-80
2022/06/22 07:56:14;;;;;;;5.60;2.20;;;;;;;24.92;36.13;101358.44;5034656;28;20303;-80
2022/06/22 07:58:47;;;;;;;5.70;1.63;;;;;;;25.58;36.21;101352.09;5037346;28;20029;-79
2022/06/22 08:01:16;;;;;;;9.02;2.33;;;;;;;24.82;35.67;101347.88;5036196;28;20026;-80
2022/06/22 08:03:53;;;;;;;8.40;1.88;;;;;;;24.44;36.48;101345.56;5034636;28;20028;-80
2022/06/22 08:06:27;;;;;;;9.60;2.10;;;;;;;24.93;35.33;101349.44;5034561;28;20077;-80
2022/06/22 08:09:00;;;;;;;7.53;1.95;;;;;;;25.21;35.68;101345.41;5035503;28;20412;-80
2022/06/22 08:11:31;;;;;;;;;;;;;;;26.19;34.84;101343.72;5036209;28;20432;-80
2022/06/22 08:14:10;;;;;;;5.70;2.15;;;;;;;26.52;34.41;101336.03;5035634;28;19936;-78
2022/06/22 08:16:43;;;;;;;3.63;1.75;;;;;;;25.25;34.23;101337.72;5036824;28;20026;-79
2022/06/22 08:19:09;;;;;;;;;;;;;;;25.27;34.28;101338.22;5035558;28;20388;-76
2022/06/22 08:21:41;;;;;;;5.75;2.05;;;;;;;25.07;35.67;101349.66;5033494;28;19962;-78
2022/06/22 08:24:09;;;;;;;4.93;1.75;;;;;;;25.61;34.27;101341.75;5033665;28;20030;-78
2022/06/22 08:26:35;;;;;;;5.15;1.70;;;;;;;25.64;34.83;101343.06;5033720;28;20053;-79
2022/06/22 08:29:01;;;;;;;7.35;2.10;;;;;;;25.84;35.30;101344.81;5034398;28;20385;-79
2022/06/22 08:31:35;;;;;;;6.50;2.10;;;;;;;25.84;36.61;101340.28;5035781;28;20120;-79
2022/06/22 08:34:05;;;;;;;6.63;2.25;;;;;;;26.45;34.71;101349.59;5033438;28;20085;-79
2022/06/22 08:37:06;;;;;;;6.35;2.10;;;;;;;25.51;36.00;101346.28;5034793;28;20041;-77
2022/06/22 08:39:52;;;;;;;5.85;2.10;;;;;;;25.66;35.34;101351.50;5033372;28;20072;-79
2022/06/22 08:42:46;;;;;;;6.32;2.10;;;;;;;26.14;35.41;101353.56;5034360;28;20025;-78
2022/06/22 08:45:41;;;;;;;5.38;2.00;;;;;;;25.89;34.19;101355.34;5033503;28;20044;-78
2022/06/22 08:48:28;;;;;;;7.15;2.20;;;;;;;25.34;34.98;101354.59;5033338;28;20477;-78
2022/06/22 08:51:12;;;;;;;5.30;1.92;;;;;;;25.31;36.04;101355.13;5033421;28;20096;-78
2022/06/22 08:53:58;;;;;;;7.13;1.92;;;;;;;25.73;36.06;101353.84;5034500;28;20053;-79
2022/06/22 08:56:38;;;;;;;6.25;2.08;;;;;;;25.73;34.21;101340.63;5034260;28;20519;-79
2022/06/22 08:59:27;;;;;;;4.82;1.90;;;;;;;25.25;35.86;101362.28;5033268;28;20048;-80
2022/06/22 09:02:14;;;;;;;4.50;1.80;;;;;;;25.96;34.57;101369.06;5032991;28;20119;-79
2022/06/22 09:05:04;;;;;;;6.65;2.20;;;;;;;26.43;35.02;101362.31;5032884;28;20087;-80
2022/06/22 09:07:44;;;;;;;5.03;2.20;;;;;;;26.13;34.42;101355.44;5032850;28;20036;-79
2022/06/22 09:10:36;;;;;;;7.68;2.38;;;;;;;26.36;34.40;101371.69;5032970;28;20029;-79
2022/06/22 09:13:35;;;;;;;5.00;2.03;;;;;;;26.74;34.07;101368.13;5023831;28;20033;-79
2022/06/22 09:16:17;;;;;;;6.45;2.22;;;;;;;26.75;33.90;101374.22;5032921;28;20374;-79
2022/06/22 09:18:55;;;;;;;6.30;2.30;;;;;;;25.82;35.22;101368.06;5035115;28;20481;-79
2022/06/22 09:21:40;;;;;;;6.38;2.60;;;;;;;25.30;36.76;101369.44;5034055;28;20030;-78
2022/06/22 09:24:22;;;;;;;11.05;2.38;;;;;;;26.76;34.62;101373.97;5033311;28;20431;-78
2022/06/22 09:27:03;;;;;;;5.78;2.45;;;;;;;27.17;32.70;101372.72;5034288;28;20539;-79
2022/06/22 09:30:13;;;;;;;5.18;1.77;;;;;;;27.54;31.09;101369.31;5033850;28;20037;-79
2022/06/22 09:32:56;;;;;;;5.38;2.05;;;;;;;27.48;31.18;101367.81;5035236;28;20030;-79
2022/06/22 09:35:21;;;;;;;3.78;1.55;;;;;;;27.43;30.48;101371.31;5033943;28;20037;-79
2022/06/22 09:38:11;;;;;;;6.73;1.50;;;;;;;26.52;29.87;101373.13;5033593;28;20033;-79
2022/06/22 09:40:58;;;;;;;3.95;1.45;;;;;;;27.23;30.22;101377.69;5032436;28;20480;-78
2022/06/22 09:44:04;;;;;;;4.03;1.60;;;;;;;27.30;30.60;101384.50;5032200;28;20365;-79
2022/06/22 09:47:04;;;;;;;7.95;1.60;;;;;;;27.93;29.62;101381.53;5033813;28;20385;-78
2022/06/22 09:50:02;;;;;;;5.53;1.88;;;;;;;26.65;31.38;101375.13;5032309;28;20087;-79
2022/06/22 09:52:47;;;;;;;2.97;1.65;;;;;;;25.93;30.98;101366.97;5037641;28;20061;-80
2022/06/22 09:58:38;;;;;;;4.00;1.73;;;;;;;27.62;30.36;101370.53;5035332;28;20036;-80
2022/06/22 10:01:20;;;;;;;6.28;1.55;;;;;;;27.63;27.64;101372.91;5034259;28;20021;-78
2022/06/22 10:04:08;;;;;;;1.25;1.02;;;;;;;27.52;28.65;101370.69;5032930;28;20037;-79
2022/06/22 10:06:33;;;;;;;3.00;1.42;;;;;;;28.00;28.60;101367.91;5033512;28;20037;-80
2022/06/22 10:09:13;;;;;;;3.05;1.50;;;;;;;28.00;29.04;101358.06;5033699;28;20082;-80
2022/06/22 10:11:52;;;;;;;2.88;1.42;;;;;;;28.20;28.47;101350.84;5032409;28;20026;-79
2022/06/22 10:14:35;;;;;;;4.00;1.48;;;;;;;28.24;29.32;101351.81;5034193;28;20526;-77
2022/06/22 10:17:23;;;;;;;2.95;1.27;;;;;;;27.47;29.44;101358.25;5033649;28;20025;-79
2022/06/22 10:20:18;;;;;;;7.68;1.52;;;;;;;28.37;29.00;101358.22;5033817;28;20033;-78
2022/06/22 10:23:02;;;;;;;3.60;1.98;;;;;;;27.86;30.71;101344.72;5034111;28;20495;-79
2022/06/22 10:25:51;;;;;;;4.65;1.48;;;;;;;27.94;30.89;101343.28;5032595;28;20116;-79
2022/06/22 10:28:31;;;;;;;3.40;1.73;;;;;;;26.36;31.93;101343.31;5032757;28;20026;-79
2022/06/22 10:31:15;;;;;;;3.70;1.90;;;;;;;27.06;32.61;101356.13;5033524;28;20025;-79
2022/06/22 10:34:13;;;;;;;5.78;1.70;;;;;;;28.11;31.28;101351.50;5033451;28;20052;-79
2022/06/22 10:37:06;;;;;;;3.85;1.77;;;;;;;27.78;32.32;101352.53;5031586;28;20041;-79
2022/06/22 10:39:46;;;;;;;4.18;1.45;;;;;;;27.65;31.67;101354.06;5032146;28;20537;-80
2022/06/22 10:45:54;;;;;;;5.60;1.70;;;;;;;27.25;31.46;101348.22;5036333;28;20048;-79
2022/06/22 10:48:31;;;;;;;3.43;1.60;;;;;;;28.46;30.80;101340.56;5034703;28;20456;-80
2022/06/22 10:51:25;;;;;;;4.70;1.80;;;;;;;27.67;31.47;101343.91;5033337;28;20033;-80
2022/06/22 10:54:15;;;;;;;6.43;1.73;;;;;;;28.25;29.64;101345.41;5033179;28;20021;-81
2022/06/22 10:56:56;;;;;;;4.85;1.40;;;;;;;28.54;28.59;101338.00;5036503;28;20033;-81
2022/06/22 10:59:40;;;;;;;3.90;1.50;;;;;;;29.26;26.82;101341.91;5033912;28;20112;-79
2022/06/22 11:02:24;;;;;;;4.25;1.40;;;;;;;28.42;26.85;101342.22;5033872;28;20465;-80
2022/06/22 11:05:07;;;;;;;8.27;2.15;;;;;;;28.64;29.16;101342.34;5037408;28;20373;-79
2022/06/22 11:07:57;;;;;;;5.53;1.33;;;;;;;28.91;27.20;101340.75;5036022;28;20115;-80
2022/06/22 11:10:53;;;;;;;3.78;1.30;;;;;;;28.71;27.56;101336.63;5035581;28;20044;-79
2022/06/22 11:13:55;;;;;;;4.28;1.55;;;;;;;29.42;27.71;101329.06;5037260;28;20025;-80
2022/06/22 11:16:26;;;;;;;3.13;1.42;;;;;;;29.44;26.98;101334.88;5035349;28;20036;-79
2022/06/22 11:19:13;;;;;;;2.72;1.70;;;;;;;27.14;28.03;101325.53;5035693;28;20514;-78
2022/06/22 11:22:05;;;;;;;7.07;1.60;;;;;;;27.45;28.87;101333.91;5035128;28;20044;-80
2022/06/22 11:24:51;;;;;;;4.20;1.45;;;;;;;26.92;28.32;101318.09;5035845;28;20030;-80
2022/06/22 11:33:27;;;;;;;4.10;1.27;;;;;;;27.78;27.88;101316.13;5036853;28;20127;-77
2022/06/22 11:35:53;;;;;;;5.30;1.38;;;;;;;28.19;26.54;101318.13;5036595;28;20026;-78
2022/06/22 11:38:35;;;;;;;2.47;1.10;;;;;;;28.51;26.79;101317.34;5034409;28;20034;-81
2022/06/22 11:41:26;;;;;;;8.63;2.00;;;;;;;28.12;28.45;101313.22;5035543;28;20284;-80
2022/06/22 11:44:09;;;;;;;2.72;1.50;;;;;;;28.72;28.02;101312.41;5035478;28;20512;-79
2022/06/22 11:46:48;;;;;;;2.83;1.58;;;;;;;27.54;29.04;101312.81;5034336;28;20039;-77
2022/06/22 11:49:37;;;;;;;4.07;1.80;;;;;;;28.44;28.64;101302.84;5035738;28;20104;-78
2022/06/22 11:52:38;;;;;;;3.00;1.58;;;;;;;28.71;27.10;101310.03;5035693;28;20037;-78
2022/06/22 11:55:10;;;;;;;5.40;1.50;;;;;;;28.52;28.15;101302.16;5035443;28;20036;-80
2022/06/22 11:57:47;;;;;;;3.70;1.58;;;;;;;28.15;28.77;101306.53;5034439;28;20056;-79
2022/06/22 12:00:41;;;;;;;3.90;1.73;;;;;;;28.14;28.09;101302.31;5035664;28;20021;-79
2022/06/22 12:03:17;;;;;;;3.67;1.52;;;;;;;27.35;27.70;101308.28;5035302;28;20056;-78
2022/06/22 12:06:07;;;;;;;3.85;1.60;;;;;;;27.70;30.13;101294.75;5034000;28;20041;-77
2022/06/22 12:08:57;;;;;;;3.20;1.70;;;;;;;27.86;29.32;101288.94;5035000;28;20029;-79
2022/06/22 12:11:43;;;;;;;3.03;1.65;;;;;;;28.73;28.46;101287.38;5034401;28;20362;-78
2022/06/22 12:17:32;;;;;;;8.50;1.58;;;;;;;28.70;27.70;101287.97;5036075;28;20040;-79
2022/06/22 12:20:28;;;;;;;5.63;1.58;;;;;;;28.27;29.04;101277.59;5034124;28;20034;-78
2022/06/22 12:23:11;;;;;;;4.70;1.58;;;;;;;27.80;28.37;101265.44;5036538;28;20044;-81
2022/06/22 12:25:53;;;;;;;5.47;1.30;;;;;;;27.45;29.86;101276.28;5035945;28;20166;-79
2022/06/22 12:28:46;;;;;;;4.53;1.85;;;;;;;26.77;30.48;101284.59;5034643;28;20441;-78
2022/06/22 12:31:19;;;;;;;;;;;;;;;28.27;29.18;101277.59;5034552;28;20052;-78
2022/06/22 12:33:48;;;;;;;3.65;1.70;;;;;;;28.91;28.70;101280.34;5035269;28;19916;-78
2022/06/22 12:36:21;;;;;;;3.58;1.58;;;;;;;28.70;26.65;101276.56;5035307;28;20416;-78
2022/06/22 12:39:08;;;;;;;5.60;1.40;;;;;;;28.67;28.50;101274.50;5035731;28;20515;-78
2022/06/22 12:42:03;;;;;;;4.00;1.40;;;;;;;28.88;26.99;101272.19;5034818;28;20098;-76